sensor_id;sensor_type;location;lat;lon;timestamp;P1;durP1;ratioP1;P2;durP2;ratioP2
32106;SDS011;18622;51.998;10.440;2022-07-29T02:16:21;7.27;;;1.60;;
32106;SDS011;18622;51.998;10.440;2022-07-29T02:18:52;10.30;;;1.90;;
32106;SDS011;18622;51.998;10.440;2022-07-29T02:23:48;7.55;;;1.87;;
32106;SDS011;18622;51.998;10.440;2022-07-29T02:26:22;7.05;;;1.80;;
32106;SDS011;18622;51.998;10.440;2022-07-29T02:28:52;5.12;;;1.85;;
32106;SDS011;18622;51.998;10.440;2022-07-29T02:31:21;6.58;;;2.08;;
32106;SDS011;18622;51.998;10.440;2022-07-29T02:33:51;7.70;;;1.30;;
32106;SDS011;18622;51.998;10.440;2022-07-29T02:36:25;16.55;;;1.50;;
32106;SDS011;18622;51.998;10.440;2022-07-29T02:38:50;7.20;;;1.37;;
32106;SDS011;18622;51.998;10.440;2022-07-29T02:41:23;10.93;;;1.50;;
32106;SDS011;18622;51.998;10.440;2022-07-29T02:43:53;8.18;;;1.67;;
32106;SDS011;18622;51.998;10.440;2022-07-29T02:46:27;10.40;;;1.87;;
32106;SDS011;18622;51.998;10.440;2022-07-29T02:49:01;10.37;;;1.80;;
32106;SDS011;18622;51.998;10.440;2022-07-29T02:51:55;6.60;;;1.50;;
32106;SDS011;18622;51.998;10.440;2022-07-29T02:54:07;10.53;;;1.60;;
32106;SDS011;18622;51.998;10.440;2022-07-29T02:56:36;16.40;;;1.52;;
32106;SDS011;18622;51.998;10.440;2022-07-29T02:59:08;8.33;;;2.67;;
32106;SDS011;18622;51.998;10.440;2022-07-29T03:33:15;3.27;;;1.17;;
32106;SDS011;18622;51.998;10.440;2022-07-29T03:35:43;7.80;;;2.17;;
32106;SDS011;18622;51.998;10.440;2022-07-29T03:38:11;5.23;;;2.17;;
32106;SDS011;18622;51.998;10.440;2022-07-29T03:43:13;5.13;;;1.60;;
32106;SDS011;18622;51.998;10.440;2022-07-29T03:45:44;5.40;;;1.22;;
32106;SDS011;18622;51.998;10.440;2022-07-29T03:48:15;3.33;;;1.55;;
32106;SDS011;18622;51.998;10.440;2022-07-29T03:50:44;6.83;;;1.77;;
32106;SDS011;18622;51.998;10.440;2022-07-29T03:53:12;3.77;;;1.50;;
32106;SDS011;18622;51.998;10.440;2022-07-29T03:55:41;6.30;;;1.60;;
32106;SDS011;18622;51.998;10.440;2022-07-29T03:58:13;7.03;;;1.67;;
32106;SDS011;18622;51.998;10.440;2022-07-29T04:00:42;6.90;;;1.57;;
32106;SDS011;18622;51.998;10.440;2022-07-29T04:03:11;6.42;;;1.65;;
32106;SDS011;18622;51.998;10.440;2022-07-29T04:05:40;8.25;;;1.67;;
32106;SDS011;18622;51.998;10.440;2022-07-29T04:08:07;5.00;;;1.30;;
32106;SDS011;18622;51.998;10.440;2022-07-29T04:10:35;5.43;;;1.63;;
32106;SDS011;18622;51.998;10.440;2022-07-29T04:13:04;10.13;;;1.47;;
32106;SDS011;18622;51.998;10.440;2022-07-29T04:15:32;5.90;;;1.67;;
32106;SDS011;18622;51.998;10.440;2022-07-29T04:18:00;5.67;;;1.43;;
32106;SDS011;18622;51.998;10.440;2022-07-29T04:20:27;3.97;;;1.67;;
32106;SDS011;18622;51.998;10.440;2022-07-29T04:22:55;6.80;;;1.60;;
32106;SDS011;18622;51.998;10.440;2022-07-29T04:25:23;6.97;;;1.90;;
32106;SDS011;18622;51.998;10.440;2022-07-29T04:27:51;7.77;;;1.50;;
32106;SDS011;18622;51.998;10.440;2022-07-29T04:30:28;7.53;;;1.67;;
32106;SDS011;18622;51.998;10.440;2022-07-29T04:32:56;14.93;;;2.08;;
32106;SDS011;18622;51.998;10.440;2022-07-29T04:35:24;7.70;;;1.60;;
32106;SDS011;18622;51.998;10.440;2022-07-29T04:37:52;3.93;;;2.13;;
32106;SDS011;18622;51.998;10.440;2022-07-29T04:40:20;8.63;;;2.03;;
32106;SDS011;18622;51.998;10.440;2022-07-29T04:42:48;11.20;;;1.60;;
32106;SDS011;18622;51.998;10.440;2022-07-29T04:45:15;16.43;;;2.70;;
32106;SDS011;18622;51.998;10.440;2022-07-29T04:47:43;6.60;;;1.97;;
32106;SDS011;18622;51.998;10.440;2022-07-29T04:50:11;8.77;;;1.77;;
32106;SDS011;18622;51.998;10.440;2022-07-29T04:52:39;12.37;;;1.83;;
32106;SDS011;18622;51.998;10.440;2022-07-29T04:55:07;8.83;;;2.23;;
32106;SDS011;18622;51.998;10.440;2022-07-29T04:57:35;7.65;;;1.72;;
32106;SDS011;18622;51.998;10.440;2022-07-29T05:00:03;7.33;;;1.60;;
32106;SDS011;18622;51.998;10.440;2022-07-29T05:02:32;6.03;;;1.87;;
32106;SDS011;18622;51.998;10.440;2022-07-29T05:05:00;8.17;;;1.50;;
32106;SDS011;18622;51.998;10.440;2022-07-29T05:07:27;6.57;;;1.37;;
32106;SDS011;18622;51.998;10.440;2022-07-29T05:09:55;10.47;;;1.50;;
32106;SDS011;18622;51.998;10.440;2022-07-29T05:12:23;7.70;;;2.00;;
32106;SDS011;18622;51.998;10.440;2022-07-29T05:14:51;10.08;;;2.00;;
32106;SDS011;18622;51.998;10.440;2022-07-29T09:00:46;5.17;;;2.83;;
32106;SDS011;18622;51.998;10.440;2022-07-29T09:03:18;7.93;;;2.60;;
32106;SDS011;18622;51.998;10.440;2022-07-29T09:05:47;10.75;;;2.98;;
32106;SDS011;18622;51.998;10.440;2022-07-29T09:08:16;7.37;;;2.47;;
32106;SDS011;18622;51.998;10.440;2022-07-29T09:10:44;13.27;;;2.80;;
32106;SDS011;18622;51.998;10.440;2022-07-29T09:13:13;7.97;;;1.95;;
32106;SDS011;18622;51.998;10.440;2022-07-29T09:15:40;9.35;;;2.62;;
32106;SDS011;18622;51.998;10.440;2022-07-29T09:18:08;13.73;;;2.67;;
32106;SDS011;18622;51.998;10.440;2022-07-29T09:20:36;11.37;;;2.80;;
32106;SDS011;18622;51.998;10.440;2022-07-29T09:23:22;8.33;;;2.40;;
32106;SDS011;18622;51.998;10.440;2022-07-29T09:25:50;10.07;;;2.47;;
32106;SDS011;18622;51.998;10.440;2022-07-29T09:28:18;7.03;;;2.50;;
32106;SDS011;18622;51.998;10.440;2022-07-29T09:30:55;8.40;;;2.40;;
32106;SDS011;18622;51.998;10.440;2022-07-29T09:33:31;9.03;;;3.20;;
32106;SDS011;18622;51.998;10.440;2022-07-29T09:36:05;5.43;;;2.37;;
32106;SDS011;18622;51.998;10.440;2022-07-29T09:38:34;6.83;;;2.40;;
32106;SDS011;18622;51.998;10.440;2022-07-29T09:43:30;8.73;;;2.35;;
32106;SDS011;18622;51.998;10.440;2022-07-29T09:46:10;6.67;;;2.60;;
32106;SDS011;18622;51.998;10.440;2022-07-29T09:48:38;8.60;;;2.75;;
32106;SDS011;18622;51.998;10.440;2022-07-29T09:51:16;13.80;;;2.63;;
32106;SDS011;18622;51.998;10.440;2022-07-29T09:53:45;6.15;;;2.60;;
32106;SDS011;18622;51.998;10.440;2022-07-29T09:56:12;8.20;;;2.50;;
32106;SDS011;18622;51.998;10.440;2022-07-29T09:58:40;7.65;;;2.60;;
32106;SDS011;18622;51.998;10.440;2022-07-29T10:01:07;8.60;;;2.70;;
32106;SDS011;18622;51.998;10.440;2022-07-29T10:03:51;6.83;;;2.67;;
32106;SDS011;18622;51.998;10.440;2022-07-29T10:06:19;10.20;;;3.17;;
32106;SDS011;18622;51.998;10.440;2022-07-29T10:08:47;9.63;;;2.30;;
32106;SDS011;18622;51.998;10.440;2022-07-29T10:11:16;9.35;;;2.47;;
32106;SDS011;18622;51.998;10.440;2022-07-29T10:16:13;8.40;;;2.67;;
32106;SDS011;18622;51.998;10.440;2022-07-29T10:18:42;19.32;;;3.15;;
32106;SDS011;18622;51.998;10.440;2022-07-29T10:21:12;7.33;;;2.37;;
32106;SDS011;18622;51.998;10.440;2022-07-29T10:23:40;5.13;;;2.23;;
32106;SDS011;18622;51.998;10.440;2022-07-29T10:26:09;15.00;;;2.77;;
32106;SDS011;18622;51.998;10.440;2022-07-29T10:28:38;11.05;;;2.30;;
32106;SDS011;18622;51.998;10.440;2022-07-29T10:31:06;4.77;;;2.50;;
32106;SDS011;18622;51.998;10.440;2022-07-29T10:39:27;16.33;;;2.80;;
32106;SDS011;18622;51.998;10.440;2022-07-29T10:44:35;11.60;;;2.40;;
32106;SDS011;18622;51.998;10.440;2022-07-29T10:47:05;8.38;;;2.75;;
32106;SDS011;18622;51.998;10.440;2022-07-29T10:49:33;11.50;;;2.40;;
32106;SDS011;18622;51.998;10.440;2022-07-29T10:52:08;11.80;;;2.20;;
32106;SDS011;18622;51.998;10.440;2022-07-29T10:57:24;9.43;;;3.27;;
32106;SDS011;18622;51.998;10.440;2022-07-29T12:34:47;8.23;;;3.13;;
32106;SDS011;18622;51.998;10.440;2022-07-29T12:37:15;6.77;;;3.23;;
32106;SDS011;18622;51.998;10.440;2022-07-29T12:39:43;6.03;;;3.00;;
32106;SDS011;18622;51.998;10.440;2022-07-29T12:42:12;14.90;;;3.90;;
32106;SDS011;18622;51.998;10.440;2022-07-29T12:44:50;7.23;;;3.30;;
32106;SDS011;18622;51.998;10.440;2022-07-29T12:47:14;6.95;;;3.42;;
32106;SDS011;18622;51.998;10.440;2022-07-29T12:49:44;13.23;;;3.93;;
32106;SDS011;18622;51.998;10.440;2022-07-29T12:52:29;7.62;;;2.92;;
32106;SDS011;18622;51.998;10.440;2022-07-29T12:54:58;9.07;;;3.20;;
32106;SDS011;18622;51.998;10.440;2022-07-29T12:57:26;12.58;;;3.30;;
32106;SDS011;18622;51.998;10.440;2022-07-29T13:00:04;8.00;;;3.65;;
32106;SDS011;18622;51.998;10.440;2022-07-29T13:02:37;8.93;;;3.70;;
32106;SDS011;18622;51.998;10.440;2022-07-29T13:05:09;12.30;;;3.85;;
32106;SDS011;18622;51.998;10.440;2022-07-29T13:07:36;14.70;;;3.62;;
32106;SDS011;18622;51.998;10.440;2022-07-29T13:10:20;11.27;;;4.30;;
32106;SDS011;18622;51.998;10.440;2022-07-29T13:13:04;9.60;;;3.83;;
32106;SDS011;18622;51.998;10.440;2022-07-29T13:15:37;9.40;;;3.10;;
32106;SDS011;18622;51.998;10.440;2022-07-29T13:18:25;10.07;;;3.40;;
32106;SDS011;18622;51.998;10.440;2022-07-29T13:20:53;8.53;;;4.17;;
32106;SDS011;18622;51.998;10.440;2022-07-29T13:23:21;9.40;;;3.27;;
32106;SDS011;18622;51.998;10.440;2022-07-29T13:25:48;11.10;;;4.00;;
32106;SDS011;18622;51.998;10.440;2022-07-29T13:28:16;8.00;;;3.60;;
32106;SDS011;18622;51.998;10.440;2022-07-29T13:30:44;9.63;;;3.47;;
32106;SDS011;18622;51.998;10.440;2022-07-29T13:33:12;10.00;;;3.85;;
32106;SDS011;18622;51.998;10.440;2022-07-29T13:35:41;10.70;;;3.60;;
32106;SDS011;18622;51.998;10.440;2022-07-29T13:38:09;9.87;;;3.40;;
32106;SDS011;18622;51.998;10.440;2022-07-29T13:40:37;7.50;;;3.40;;
32106;SDS011;18622;51.998;10.440;2022-07-29T13:43:05;8.00;;;3.50;;
32106;SDS011;18622;51.998;10.440;2022-07-29T13:48:01;13.75;;;3.60;;
32106;SDS011;18622;51.998;10.440;2022-07-29T13:50:29;10.17;;;4.10;;
32106;SDS011;18622;51.998;10.440;2022-07-29T13:52:57;6.63;;;3.50;;
32106;SDS011;18622;51.998;10.440;2022-07-29T13:57:54;10.25;;;3.75;;
32106;SDS011;18622;51.998;10.440;2022-07-29T14:00:21;11.00;;;3.60;;
32106;SDS011;18622;51.998;10.440;2022-07-29T14:02:49;13.97;;;3.83;;
32106;SDS011;18622;51.998;10.440;2022-07-29T14:05:17;9.77;;;3.70;;
32106;SDS011;18622;51.998;10.440;2022-07-29T14:07:45;7.93;;;4.13;;
32106;SDS011;18622;51.998;10.440;2022-07-29T14:10:13;9.53;;;4.00;;
32106;SDS011;18622;51.998;10.440;2022-07-29T14:12:41;12.97;;;3.50;;
32106;SDS011;18622;51.998;10.440;2022-07-29T14:15:08;16.63;;;4.10;;
32106;SDS011;18622;51.998;10.440;2022-07-29T14:17:36;4.80;;;3.20;;
32106;SDS011;18622;51.998;10.440;2022-07-29T14:20:04;5.93;;;3.60;;
32106;SDS011;18622;51.998;10.440;2022-07-29T14:22:32;6.33;;;3.60;;
32106;SDS011;18622;51.998;10.440;2022-07-29T14:25:00;7.87;;;3.57;;
32106;SDS011;18622;51.998;10.440;2022-07-29T14:27:28;6.53;;;3.47;;
32106;SDS011;18622;51.998;10.440;2022-07-29T14:29:55;22.70;;;3.63;;
32106;SDS011;18622;51.998;10.440;2022-07-29T14:32:24;36.10;;;3.90;;
32106;SDS011;18622;51.998;10.440;2022-07-29T14:34:51;7.27;;;4.07;;
32106;SDS011;18622;51.998;10.440;2022-07-29T14:37:19;5.87;;;3.90;;
32106;SDS011;18622;51.998;10.440;2022-07-29T14:39:47;15.53;;;3.47;;
32106;SDS011;18622;51.998;10.440;2022-07-29T14:42:15;11.23;;;3.57;;
32106;SDS011;18622;51.998;10.440;2022-07-29T14:44:43;16.93;;;3.70;;
32106;SDS011;18622;51.998;10.440;2022-07-29T14:47:11;66.47;;;5.67;;
32106;SDS011;18622;51.998;10.440;2022-07-29T14:49:38;28.33;;;4.60;;
32106;SDS011;18622;51.998;10.440;2022-07-29T14:52:06;46.20;;;5.53;;
32106;SDS011;18622;51.998;10.440;2022-07-29T14:54:34;20.43;;;4.43;;
32106;SDS011;18622;51.998;10.440;2022-07-29T14:57:02;21.50;;;4.20;;
32106;SDS011;18622;51.998;10.440;2022-07-29T14:59:30;25.90;;;4.43;;
32106;SDS011;18622;51.998;10.440;2022-07-29T15:01:58;67.47;;;6.50;;
32106;SDS011;18622;51.998;10.440;2022-07-29T15:04:25;11.03;;;4.07;;
32106;SDS011;18622;51.998;10.440;2022-07-29T15:06:53;14.90;;;4.27;;
32106;SDS011;18622;51.998;10.440;2022-07-29T15:09:21;17.20;;;3.83;;
32106;SDS011;18622;51.998;10.440;2022-07-29T15:11:49;10.47;;;3.70;;
32106;SDS011;18622;51.998;10.440;2022-07-29T15:14:17;11.37;;;3.10;;
32106;SDS011;18622;51.998;10.440;2022-07-29T15:16:44;13.13;;;3.73;;
32106;SDS011;18622;51.998;10.440;2022-07-29T15:19:12;9.80;;;4.07;;
32106;SDS011;18622;51.998;10.440;2022-07-29T15:21:40;9.27;;;3.40;;
32106;SDS011;18622;51.998;10.440;2022-07-29T15:24:08;10.63;;;3.70;;
32106;SDS011;18622;51.998;10.440;2022-07-29T15:26:36;10.63;;;3.50;;
32106;SDS011;18622;51.998;10.440;2022-07-29T15:29:03;7.30;;;2.97;;
32106;SDS011;18622;51.998;10.440;2022-07-29T15:31:31;12.80;;;3.33;;
32106;SDS011;18622;51.998;10.440;2022-07-29T15:33:59;6.63;;;3.30;;
32106;SDS011;18622;51.998;10.440;2022-07-29T15:36:27;11.13;;;3.73;;
32106;SDS011;18622;51.998;10.440;2022-07-29T15:38:55;8.63;;;3.47;;
32106;SDS011;18622;51.998;10.440;2022-07-29T15:41:22;16.57;;;3.70;;
32106;SDS011;18622;51.998;10.440;2022-07-29T15:43:50;23.93;;;4.70;;
32106;SDS011;18622;51.998;10.440;2022-07-29T15:46:18;13.10;;;3.40;;
32106;SDS011;18622;51.998;10.440;2022-07-29T15:49:05;16.43;;;4.00;;
32106;SDS011;18622;51.998;10.440;2022-07-29T15:51:33;11.30;;;3.05;;
32106;SDS011;18622;51.998;10.440;2022-07-29T15:54:02;15.03;;;3.90;;
32106;SDS011;18622;51.998;10.440;2022-07-29T15:56:30;10.88;;;3.02;;
32106;SDS011;18622;51.998;10.440;2022-07-29T15:58:58;10.13;;;3.83;;
32106;SDS011;18622;51.998;10.440;2022-07-29T16:01:26;20.33;;;4.23;;
32106;SDS011;18622;51.998;10.440;2022-07-29T16:03:54;27.10;;;5.03;;
32106;SDS011;18622;51.998;10.440;2022-07-29T16:06:23;21.42;;;4.35;;
32106;SDS011;18622;51.998;10.440;2022-07-29T16:08:51;21.07;;;4.10;;
32106;SDS011;18622;51.998;10.440;2022-07-29T16:11:20;13.95;;;3.62;;
32106;SDS011;18622;51.998;10.440;2022-07-29T16:13:48;9.73;;;3.63;;
32106;SDS011;18622;51.998;10.440;2022-07-29T16:16:16;11.33;;;3.83;;
32106;SDS011;18622;51.998;10.440;2022-07-29T16:18:44;22.20;;;4.53;;
32106;SDS011;18622;51.998;10.440;2022-07-29T16:21:12;17.37;;;3.60;;
32106;SDS011;18622;51.998;10.440;2022-07-29T16:23:40;21.03;;;4.20;;
32106;SDS011;18622;51.998;10.440;2022-07-29T16:26:07;17.43;;;3.50;;
32106;SDS011;18622;51.998;10.440;2022-07-29T16:28:35;11.17;;;2.80;;
32106;SDS011;18622;51.998;10.440;2022-07-29T16:31:03;6.33;;;2.83;;
32106;SDS011;18622;51.998;10.440;2022-07-29T16:33:31;4.63;;;2.60;;
32106;SDS011;18622;51.998;10.440;2022-07-29T16:35:59;7.70;;;3.07;;
32106;SDS011;18622;51.998;10.440;2022-07-29T16:38:27;12.13;;;3.30;;
32106;SDS011;18622;51.998;10.440;2022-07-29T16:40:54;9.83;;;3.57;;
32106;SDS011;18622;51.998;10.440;2022-07-29T16:43:22;15.33;;;3.43;;
32106;SDS011;18622;51.998;10.440;2022-07-29T16:45:50;8.60;;;3.03;;
32106;SDS011;18622;51.998;10.440;2022-07-29T16:48:18;8.07;;;3.07;;
32106;SDS011;18622;51.998;10.440;2022-07-29T16:50:46;9.83;;;2.97;;
32106;SDS011;18622;51.998;10.440;2022-07-29T16:53:13;9.37;;;2.63;;
32106;SDS011;18622;51.998;10.440;2022-07-29T16:55:41;8.50;;;2.87;;
32106;SDS011;18622;51.998;10.440;2022-07-29T16:58:09;6.30;;;2.67;;
32106;SDS011;18622;51.998;10.440;2022-07-29T17:00:37;5.10;;;2.50;;
32106;SDS011;18622;51.998;10.440;2022-07-29T17:03:05;8.10;;;2.57;;
32106;SDS011;18622;51.998;10.440;2022-07-29T17:05:33;9.03;;;2.43;;
32106;SDS011;18622;51.998;10.440;2022-07-29T17:08:01;7.27;;;2.80;;
32106;SDS011;18622;51.998;10.440;2022-07-29T17:10:29;5.13;;;2.37;;
32106;SDS011;18622;51.998;10.440;2022-07-29T17:12:57;7.40;;;2.60;;
32106;SDS011;18622;51.998;10.440;2022-07-29T17:15:24;11.37;;;2.93;;
32106;SDS011;18622;51.998;10.440;2022-07-29T17:17:52;4.33;;;2.40;;
32106;SDS011;18622;51.998;10.440;2022-07-29T17:20:20;8.20;;;2.30;;
32106;SDS011;18622;51.998;10.440;2022-07-29T17:22:48;6.87;;;2.70;;
32106;SDS011;18622;51.998;10.440;2022-07-29T17:25:16;12.90;;;2.50;;
32106;SDS011;18622;51.998;10.440;2022-07-29T17:27:44;9.87;;;2.67;;
32106;SDS011;18622;51.998;10.440;2022-07-29T17:30:12;8.53;;;2.60;;
32106;SDS011;18622;51.998;10.440;2022-07-29T17:32:39;6.43;;;3.00;;
32106;SDS011;18622;51.998;10.440;2022-07-29T17:35:07;7.50;;;2.83;;
32106;SDS011;18622;51.998;10.440;2022-07-29T17:37:54;5.77;;;2.40;;
32106;SDS011;18622;51.998;10.440;2022-07-29T17:40:21;6.07;;;2.80;;
32106;SDS011;18622;51.998;10.440;2022-07-29T17:42:49;16.70;;;2.90;;
32106;SDS011;18622;51.998;10.440;2022-07-29T17:45:17;11.27;;;2.70;;
32106;SDS011;18622;51.998;10.440;2022-07-29T17:47:45;7.93;;;2.67;;
32106;SDS011;18622;51.998;10.440;2022-07-29T17:50:13;5.50;;;2.57;;
32106;SDS011;18622;51.998;10.440;2022-07-29T17:52:40;8.83;;;3.10;;
32106;SDS011;18622;51.998;10.440;2022-07-29T17:55:08;8.50;;;3.97;;
32106;SDS011;18622;51.998;10.440;2022-07-29T17:57:38;6.43;;;3.07;;
32106;SDS011;18622;51.998;10.440;2022-07-29T18:00:06;8.53;;;3.27;;
32106;SDS011;18622;51.998;10.440;2022-07-29T18:02:34;12.37;;;4.40;;
32106;SDS011;18622;51.998;10.440;2022-07-29T18:05:02;8.73;;;2.87;;
32106;SDS011;18622;51.998;10.440;2022-07-29T18:07:30;9.93;;;3.05;;
32106;SDS011;18622;51.998;10.440;2022-07-29T18:09:58;10.80;;;3.03;;
32106;SDS011;18622;51.998;10.440;2022-07-29T18:12:26;7.63;;;2.90;;
32106;SDS011;18622;51.998;10.440;2022-07-29T18:14:54;9.63;;;2.83;;
32106;SDS011;18622;51.998;10.440;2022-07-29T18:17:22;8.20;;;2.50;;
32106;SDS011;18622;51.998;10.440;2022-07-29T18:19:49;16.63;;;2.70;;
32106;SDS011;18622;51.998;10.440;2022-07-29T18:22:18;10.93;;;2.80;;
32106;SDS011;18622;51.998;10.440;2022-07-29T18:24:46;8.47;;;2.50;;
32106;SDS011;18622;51.998;10.440;2022-07-29T18:27:13;5.50;;;2.37;;
32106;SDS011;18622;51.998;10.440;2022-07-29T18:29:41;13.17;;;2.73;;
32106;SDS011;18622;51.998;10.440;2022-07-29T18:32:09;6.17;;;2.60;;
32106;SDS011;18622;51.998;10.440;2022-07-29T18:34:37;10.80;;;2.73;;
32106;SDS011;18622;51.998;10.440;2022-07-29T18:37:05;6.07;;;2.50;;
32106;SDS011;18622;51.998;10.440;2022-07-29T18:39:33;7.27;;;2.73;;
32106;SDS011;18622;51.998;10.440;2022-07-29T18:42:00;12.37;;;2.87;;
32106;SDS011;18622;51.998;10.440;2022-07-29T18:44:29;8.97;;;2.50;;
32106;SDS011;18622;51.998;10.440;2022-07-29T18:46:56;6.47;;;2.83;;
32106;SDS011;18622;51.998;10.440;2022-07-29T18:49:24;8.87;;;2.90;;
32106;SDS011;18622;51.998;10.440;2022-07-29T18:51:52;5.30;;;2.63;;
32106;SDS011;18622;51.998;10.440;2022-07-29T18:54:21;4.33;;;2.52;;
32106;SDS011;18622;51.998;10.440;2022-07-29T18:56:49;8.83;;;2.10;;
32106;SDS011;18622;51.998;10.440;2022-07-29T18:59:17;6.40;;;2.27;;
32106;SDS011;18622;51.998;10.440;2022-07-29T19:01:46;8.03;;;2.67;;
32106;SDS011;18622;51.998;10.440;2022-07-29T19:04:17;9.53;;;3.00;;
32106;SDS011;18622;51.998;10.440;2022-07-29T19:06:44;7.55;;;2.55;;
32106;SDS011;18622;51.998;10.440;2022-07-29T19:09:12;11.53;;;5.97;;
32106;SDS011;18622;51.998;10.440;2022-07-29T19:11:42;12.07;;;4.08;;
32106;SDS011;18622;51.998;10.440;2022-07-29T19:14:11;7.13;;;2.63;;
32106;SDS011;18622;51.998;10.440;2022-07-29T19:16:40;9.43;;;4.17;;
32106;SDS011;18622;51.998;10.440;2022-07-29T19:19:08;13.83;;;2.90;;
32106;SDS011;18622;51.998;10.440;2022-07-29T19:21:36;7.73;;;2.80;;
32106;SDS011;18622;51.998;10.440;2022-07-29T19:24:04;8.40;;;2.43;;
32106;SDS011;18622;51.998;10.440;2022-07-29T19:26:32;6.35;;;3.42;;
32106;SDS011;18622;51.998;10.440;2022-07-29T19:29:01;8.63;;;2.33;;
32106;SDS011;18622;51.998;10.440;2022-07-29T19:31:29;6.40;;;2.40;;
32106;SDS011;18622;51.998;10.440;2022-07-29T19:33:57;5.67;;;2.10;;
32106;SDS011;18622;51.998;10.440;2022-07-29T19:36:25;4.60;;;2.50;;
32106;SDS011;18622;51.998;10.440;2022-07-29T19:38:53;7.73;;;2.57;;
32106;SDS011;18622;51.998;10.440;2022-07-29T19:41:21;6.43;;;1.90;;
32106;SDS011;18622;51.998;10.440;2022-07-29T19:43:48;6.77;;;2.00;;
32106;SDS011;18622;51.998;10.440;2022-07-29T19:46:16;7.17;;;2.40;;
32106;SDS011;18622;51.998;10.440;2022-07-29T19:48:44;7.07;;;2.23;;
32106;SDS011;18622;51.998;10.440;2022-07-29T19:51:12;6.07;;;2.60;;
32106;SDS011;18622;51.998;10.440;2022-07-29T19:53:40;7.03;;;1.90;;
32106;SDS011;18622;51.998;10.440;2022-07-29T19:56:07;5.20;;;2.17;;
32106;SDS011;18622;51.998;10.440;2022-07-29T19:58:35;10.73;;;1.80;;
32106;SDS011;18622;51.998;10.440;2022-07-29T20:01:05;5.97;;;2.08;;
32106;SDS011;18622;51.998;10.440;2022-07-29T20:03:33;8.43;;;2.53;;
32106;SDS011;18622;51.998;10.440;2022-07-29T20:06:01;6.20;;;2.83;;
32106;SDS011;18622;51.998;10.440;2022-07-29T20:08:28;3.37;;;2.10;;
32106;SDS011;18622;51.998;10.440;2022-07-29T20:10:56;4.73;;;2.00;;
32106;SDS011;18622;51.998;10.440;2022-07-29T20:13:24;7.97;;;1.87;;
32106;SDS011;18622;51.998;10.440;2022-07-29T20:15:52;9.23;;;2.40;;
32106;SDS011;18622;51.998;10.440;2022-07-29T20:18:20;8.27;;;2.27;;
32106;SDS011;18622;51.998;10.440;2022-07-29T20:20:48;7.90;;;2.77;;
32106;SDS011;18622;51.998;10.440;2022-07-29T20:23:15;6.23;;;1.97;;
32106;SDS011;18622;51.998;10.440;2022-07-29T20:25:44;7.20;;;1.98;;
32106;SDS011;18622;51.998;10.440;2022-07-29T20:28:11;7.07;;;2.00;;
32106;SDS011;18622;51.998;10.440;2022-07-29T20:30:39;9.53;;;2.03;;
32106;SDS011;18622;51.998;10.440;2022-07-29T20:33:07;6.47;;;1.97;;
32106;SDS011;18622;51.998;10.440;2022-07-29T20:35:35;5.57;;;2.00;;
32106;SDS011;18622;51.998;10.440;2022-07-29T20:38:04;7.30;;;2.08;;
32106;SDS011;18622;51.998;10.440;2022-07-29T20:40:31;6.10;;;2.33;;
32106;SDS011;18622;51.998;10.440;2022-07-29T20:43:00;7.28;;;2.00;;
32106;SDS011;18622;51.998;10.440;2022-07-29T20:45:28;5.43;;;2.10;;
32106;SDS011;18622;51.998;10.440;2022-07-29T20:47:56;5.50;;;1.77;;
32106;SDS011;18622;51.998;10.440;2022-07-29T20:50:23;7.97;;;2.27;;
32106;SDS011;18622;51.998;10.440;2022-07-29T20:52:51;6.42;;;1.95;;
32106;SDS011;18622;51.998;10.440;2022-07-29T20:55:19;6.57;;;2.00;;
32106;SDS011;18622;51.998;10.440;2022-07-29T20:57:47;8.90;;;2.00;;
32106;SDS011;18622;51.998;10.440;2022-07-29T21:00:15;5.87;;;2.20;;
32106;SDS011;18622;51.998;10.440;2022-07-29T21:02:43;4.47;;;2.13;;
32106;SDS011;18622;51.998;10.440;2022-07-29T21:05:10;4.50;;;2.00;;
32106;SDS011;18622;51.998;10.440;2022-07-29T21:07:38;4.60;;;2.10;;
32106;SDS011;18622;51.998;10.440;2022-07-29T21:10:06;8.70;;;2.53;;
32106;SDS011;18622;51.998;10.440;2022-07-29T21:12:34;4.20;;;1.70;;
32106;SDS011;18622;51.998;10.440;2022-07-29T21:15:02;3.57;;;1.90;;
32106;SDS011;18622;51.998;10.440;2022-07-29T21:17:32;6.97;;;1.80;;
32106;SDS011;18622;51.998;10.440;2022-07-29T21:20:01;5.37;;;2.10;;
32106;SDS011;18622;51.998;10.440;2022-07-29T21:22:32;2.40;;;1.87;;
32106;SDS011;18622;51.998;10.440;2022-07-29T21:25:00;9.57;;;2.23;;
32106;SDS011;18622;51.998;10.440;2022-07-29T21:27:28;5.93;;;2.07;;
32106;SDS011;18622;51.998;10.440;2022-07-29T21:30:13;6.57;;;2.00;;
32106;SDS011;18622;51.998;10.440;2022-07-29T21:32:41;4.27;;;1.80;;
32106;SDS011;18622;51.998;10.440;2022-07-29T21:35:10;7.20;;;2.30;;
32106;SDS011;18622;51.998;10.440;2022-07-29T21:37:38;8.80;;;2.37;;
32106;SDS011;18622;51.998;10.440;2022-07-29T21:40:06;7.10;;;3.03;;
32106;SDS011;18622;51.998;10.440;2022-07-29T21:42:34;9.65;;;2.27;;
32106;SDS011;18622;51.998;10.440;2022-07-29T21:45:03;11.87;;;2.70;;
